Time;durP1;ratioP1;P1;durP2;ratioP2;P2;SDS_P1;SDS_P2;PMS_P1;PMS_P2;Temp;Humidity;BMP_temperature;BMP_pressure;BME280_temperature;BME280_humidity;BME280_pressure;Samples;Min_cycle;Max_cycle;Signal;HPM_P1;HPM_P2
2021/01/24 00:01:07;;;;;;;9.83;8.28;;;;;;;2.90;89.39;98313.10;1714182;83;21119;-63
2021/01/24 00:03:35;;;;;;;11.00;8.78;;;;;;;2.90;89.32;98312.26;1714171;83;21163;-63
2021/01/24 00:06:03;;;;;;;11.30;8.48;;;;;;;2.91;89.47;98311.38;1706876;83;21092;-63
2021/01/24 00:08:30;;;;;;;11.65;8.95;;;;;;;2.92;89.45;98306.20;1706337;82;21497;-62
2021/01/24 00:10:59;;;;;;;11.10;9.10;;;;;;;2.93;89.27;98310.45;1706358;84;21211;-63
2021/01/24 00:13:27;;;;;;;8.55;7.65;;;;;;;2.92;89.33;98298.49;1706287;84;21135;-62
2021/01/24 00:15:55;;;;;;;9.78;8.70;;;;;;;2.94;89.26;98296.72;1706342;84;21164;-62
2021/01/24 00:18:22;;;;;;;10.48;8.70;;;;;;;2.92;89.11;98297.20;1706321;84;21073;-64
2021/01/24 00:20:50;;;;;;;10.25;8.80;;;;;;;2.89;89.26;98293.44;1706314;84;21092;-62
2021/01/24 00:23:18;;;;;;;10.10;9.03;;;;;;;2.91;89.36;98290.83;1706271;82;21210;-63
2021/01/24 00:25:46;;;;;;;9.43;7.97;;;;;;;2.93;89.44;98287.77;1706291;84;21120;-63
2021/01/24 00:28:20;;;;;;;10.45;8.70;;;;;;;3.00;89.58;98279.82;1706355;84;21060;-63
2021/01/24 00:30:43;;;;;;;9.68;8.45;;;;;;;3.06;89.29;98281.38;1706096;83;21508;-63
2021/01/24 00:33:11;;;;;;;28.25;16.90;;;;;;;3.07;89.16;98276.19;1706351;84;21064;-63
2021/01/24 00:35:39;;;;;;;19.32;13.35;;;;;;;3.10;89.18;98276.55;1706413;84;21608;-64
2021/01/24 00:38:07;;;;;;;11.25;7.67;;;;;;;3.14;89.14;98273.00;1706255;84;21593;-62
2021/01/24 00:40:34;;;;;;;8.53;7.55;;;;;;;3.17;88.89;98273.36;1706323;83;21175;-63
2021/01/24 00:43:04;;;;;;;8.13;6.67;;;;;;;3.15;88.87;98264.85;1706292;84;21060;-63
2021/01/24 00:45:32;;;;;;;8.95;6.72;;;;;;;3.17;88.83;98266.94;1706363;84;21085;-64
2021/01/24 00:47:59;;;;;;;8.15;6.28;;;;;;;3.16;88.90;98277.66;1706272;84;21398;-63
2021/01/24 00:50:27;;;;;;;9.38;7.62;;;;;;;3.16;88.73;98268.66;1706229;84;21926;-63
2021/01/24 00:52:56;;;;;;;10.32;7.70;;;;;;;3.15;88.90;98272.56;1706256;82;21183;-64
2021/01/24 00:55:24;;;;;;;8.03;6.90;;;;;;;3.16;88.81;98266.09;1706390;84;21608;-63
2021/01/24 00:57:52;;;;;;;13.68;9.43;;;;;;;3.15;88.89;98266.98;1706339;84;21064;-63
2021/01/24 01:00:21;;;;;;;8.65;7.22;;;;;;;3.18;89.04;98262.20;1706316;83;21352;-63
2021/01/24 01:02:48;;;;;;;8.48;6.90;;;;;;;3.15;88.82;98266.98;1706243;84;21084;-63
2021/01/24 01:05:18;;;;;;;9.85;6.83;;;;;;;3.14;89.14;98264.02;1710111;83;21143;-64
2021/01/24 01:07:45;;;;;;;6.17;5.58;;;;;;;3.19;89.25;98262.15;1714209;83;21160;-63
2021/01/24 01:10:13;;;;;;;7.37;6.42;;;;;;;3.23;89.18;98262.42;1714226;83;21048;-63
2021/01/24 01:12:41;;;;;;;7.60;6.17;;;;;;;3.26;89.21;98257.64;1714235;83;21504;-63
2021/01/24 01:15:10;;;;;;;8.33;6.37;;;;;;;3.26;89.00;98253.78;1685755;83;21156;-63
2021/01/24 01:17:37;;;;;;;11.03;8.20;;;;;;;3.24;89.07;98256.40;1714436;83;21151;-63
2021/01/24 01:20:07;;;;;;;14.58;11.30;;;;;;;3.20;89.13;98247.58;1714353;83;21175;-63
2021/01/24 01:22:36;;;;;;;10.72;7.67;;;;;;;3.17;89.30;98244.66;1714351;83;21175;-63
2021/01/24 01:25:05;;;;;;;14.70;9.50;;;;;;;3.17;89.43;98251.52;1714363;83;21465;-63
2021/01/24 01:27:33;;;;;;;14.78;9.30;;;;;;;3.12;89.47;98247.80;1714349;83;21087;-63
2021/01/24 01:30:03;;;;;;;9.13;7.80;;;;;;;3.09;89.71;98247.89;1714336;83;21072;-63
2021/01/24 01:32:31;;;;;;;10.18;7.30;;;;;;;3.11;89.85;98241.83;1714367;83;21100;-62
2021/01/24 01:35:00;;;;;;;12.47;10.55;;;;;;;3.14;89.88;98246.47;1714390;83;21067;-62
2021/01/24 01:37:28;;;;;;;10.32;9.20;;;;;;;3.15;89.88;98249.00;1714346;83;21317;-63
2021/01/24 01:39:56;;;;;;;16.23;13.62;;;;;;;3.17;90.08;98243.37;1714261;83;21120;-63
2021/01/24 01:42:24;;;;;;;31.45;20.90;;;;;;;3.18;89.96;98233.48;1714317;83;21097;-63
2021/01/24 01:44:51;;;;;;;17.50;12.10;;;;;;;3.17;90.01;98238.23;1714336;83;21063;-63
2021/01/24 01:47:22;;;;;;;17.17;11.80;;;;;;;3.20;90.13;98232.16;1714450;83;21580;-64
2021/01/24 01:49:55;;;;;;;16.30;12.55;;;;;;;3.22;90.08;98227.78;1714429;83;21385;-63
2021/01/24 01:52:28;;;;;;;18.67;9.80;;;;;;;3.23;90.20;98228.18;1714393;82;21056;-63
2021/01/24 01:54:56;;;;;;;10.53;7.58;;;;;;;3.25;90.21;98227.69;1714328;83;21083;-63
2021/01/24 01:57:24;;;;;;;10.55;8.38;;;;;;;3.28;90.29;98228.44;1714335;83;21095;-63
2021/01/24 01:59:52;;;;;;;6.78;6.08;;;;;;;3.31;90.12;98219.35;1714357;83;21481;-63
2021/01/24 02:03:01;;;;;;;8.63;6.47;;;;;;;3.32;90.34;98219.75;1714283;83;22220;-64
2021/01/24 02:06:07;;;;;;;16.90;10.43;;;;;;;3.38;90.39;98223.86;1716517;83;21489;-64
2021/01/24 02:08:58;;;;;;;8.15;7.35;;;;;;;3.40;90.38;98215.63;1720005;83;21162;-63
2021/01/24 02:12:07;;;;;;;11.18;8.20;;;;;;;3.41;90.60;98214.73;1719847;83;21182;-64
2021/01/24 02:14:52;;;;;;;14.23;8.70;;;;;;;3.45;90.55;98214.59;1720017;83;21170;-64
2021/01/24 02:17:20;;;;;;;14.13;9.80;;;;;;;3.46;90.65;98199.56;1719994;83;21349;-64
2021/01/24 02:20:14;;;;;;;10.70;7.67;;;;;;;3.48;90.77;98204.66;1719877;83;21123;-64
2021/01/24 02:22:42;;;;;;;7.35;6.65;;;;;;;3.50;90.90;98199.47;1719973;82;21076;-63
2021/01/24 02:25:32;;;;;;;7.30;6.60;;;;;;;3.54;90.93;98203.18;1719959;83;21556;-63
2021/01/24 02:28:24;;;;;;;9.28;8.15;;;;;;;3.58;90.91;98194.48;1719928;83;21056;-62
2021/01/24 02:30:52;;;;;;;11.78;9.35;;;;;;;3.60;90.88;98195.69;1720063;83;22196;-63
2021/01/24 02:33:22;;;;;;;13.60;8.80;;;;;;;3.59;90.89;98185.88;1719907;83;21083;-63
2021/01/24 02:35:56;;;;;;;21.73;10.50;;;;;;;3.59;91.23;98188.89;1693605;83;21063;-63
2021/01/24 02:38:24;;;;;;;15.88;8.65;;;;;;;3.64;91.26;98192.13;1720009;83;21071;-63
2021/01/24 02:40:52;;;;;;;10.58;8.00;;;;;;;3.70;91.20;98198.36;1719962;83;21068;-64
2021/01/24 02:43:20;;;;;;;11.10;7.53;;;;;;;3.70;91.05;98197.91;1719924;83;21377;-63
2021/01/24 02:45:50;;;;;;;10.85;8.13;;;;;;;3.71;91.31;98193.16;1719988;83;21551;-63
2021/01/24 02:48:18;;;;;;;7.40;6.60;;;;;;;3.73;91.28;98193.11;1719948;83;21536;-63
2021/01/24 02:50:47;;;;;;;6.62;5.92;;;;;;;3.79;91.40;98190.34;1719998;83;21611;-63
2021/01/24 02:53:15;;;;;;;7.75;6.87;;;;;;;3.85;91.30;98194.41;1719911;82;21159;-63
2021/01/24 02:55:43;;;;;;;12.82;8.70;;;;;;;3.85;91.28;98186.69;1719943;83;22184;-63
2021/01/24 02:58:11;;;;;;;8.45;7.47;;;;;;;3.86;91.52;98178.92;1670730;83;21114;-64
2021/01/24 03:00:38;;;;;;;7.72;6.65;;;;;;;3.89;91.50;98182.68;1719910;83;21111;-63
2021/01/24 03:03:06;;;;;;;11.38;7.87;;;;;;;3.90;91.40;98178.38;1719917;83;21606;-63
2021/01/24 03:05:34;;;;;;;8.43;7.53;;;;;;;3.91;91.35;98180.05;1715556;83;21072;-64
2021/01/24 03:08:02;;;;;;;8.60;7.70;;;;;;;3.91;91.54;98180.05;1706386;84;21214;-63
2021/01/24 03:10:30;;;;;;;11.15;9.80;;;;;;;3.91;91.49;98177.04;1706356;83;21076;-64
2021/01/24 03:13:12;;;;;;;7.97;7.20;;;;;;;3.91;91.43;98180.05;1706457;84;21128;-63
2021/01/24 03:15:39;;;;;;;8.88;7.55;;;;;;;3.92;91.56;98180.45;1706412;84;21056;-63
2021/01/24 03:18:10;;;;;;;15.10;9.38;;;;;;;3.95;91.49;98171.34;1706383;83;21156;-63
2021/01/24 03:20:40;;;;;;;8.40;7.58;;;;;;;3.96;91.54;98175.16;1706413;84;21365;-63
2021/01/24 03:23:08;;;;;;;9.28;8.25;;;;;;;3.99;91.60;98180.19;1706426;84;21552;-64
2021/01/24 03:25:37;;;;;;;8.18;7.40;;;;;;;4.02;91.62;98169.77;1706434;84;21203;-64
2021/01/24 03:28:06;;;;;;;7.47;6.60;;;;;;;4.06;91.53;98173.91;1706385;84;21072;-63
2021/01/24 03:30:35;;;;;;;7.25;6.55;;;;;;;4.09;91.32;98167.83;1706393;83;21065;-64
2021/01/24 03:33:04;;;;;;;8.68;7.78;;;;;;;4.11;91.23;98173.75;1706393;84;21205;-64
2021/01/24 03:35:32;;;;;;;9.58;8.33;;;;;;;4.10;91.40;98165.64;1706426;84;21477;-64
2021/01/24 03:38:00;;;;;;;8.63;7.47;;;;;;;4.07;91.31;98158.03;1706385;83;21477;-63
2021/01/24 03:40:27;;;;;;;8.45;7.58;;;;;;;4.09;91.49;98165.25;1706333;82;21119;-63
2021/01/24 03:42:55;;;;;;;8.03;6.95;;;;;;;4.13;91.54;98157.81;1706335;84;21190;-64
2021/01/24 03:45:23;;;;;;;8.60;7.30;;;;;;;4.16;91.40;98153.84;1706356;82;22371;-64
2021/01/24 03:47:51;;;;;;;8.40;7.60;;;;;;;4.17;91.39;98153.41;1706368;84;21076;-64
2021/01/24 03:50:18;;;;;;;7.70;6.55;;;;;;;4.17;91.21;98152.11;1706365;82;21120;-63
2021/01/24 03:52:46;;;;;;;8.50;6.97;;;;;;;4.19;91.14;98158.05;1706320;82;21168;-64
2021/01/24 03:55:14;;;;;;;11.70;7.28;;;;;;;4.22;90.95;98162.61;1706393;83;21069;-64
2021/01/24 03:57:42;;;;;;;9.78;7.22;;;;;;;4.23;90.89;98157.02;1706344;82;21409;-64
2021/01/24 04:00:11;;;;;;;8.23;7.17;;;;;;;4.23;90.88;98151.42;1706298;84;21108;-64
2021/01/24 04:02:42;;;;;;;8.75;7.25;;;;;;;4.25;90.83;98149.63;1706532;84;21115;-64
2021/01/24 04:05:11;;;;;;;8.28;7.47;;;;;;;4.24;90.64;98144.09;1706556;83;21065;-64
2021/01/24 04:07:38;;;;;;;7.53;6.83;;;;;;;4.22;90.65;98145.04;1719989;83;21568;-63
2021/01/24 04:10:08;;;;;;;7.90;7.10;;;;;;;4.22;90.78;98143.30;1719814;82;23491;-64
2021/01/24 04:12:37;;;;;;;11.83;8.75;;;;;;;4.23;90.74;98141.58;1719794;83;21150;-64
2021/01/24 04:15:07;;;;;;;12.13;9.78;;;;;;;4.23;90.80;98135.98;1719954;83;21943;-64
2021/01/24 04:17:35;;;;;;;9.93;8.83;;;;;;;4.25;90.79;98143.20;1719890;83;21225;-64
2021/01/24 04:20:05;;;;;;;11.43;9.50;;;;;;;4.27;90.66;98136.71;1719913;83;21072;-64
2021/01/24 04:22:33;;;;;;;10.93;9.90;;;;;;;4.24;90.44;98134.25;1719808;83;21385;-64
2021/01/24 04:25:01;;;;;;;17.62;11.93;;;;;;;4.21;90.76;98131.33;1719775;83;21131;-64
2021/01/24 04:27:29;;;;;;;20.50;10.30;;;;;;;4.23;90.89;98131.28;1719937;83;21564;-64
2021/01/24 04:29:56;;;;;;;11.83;10.53;;;;;;;4.22;90.89;98130.44;1719857;83;21230;-64
2021/01/24 04:32:24;;;;;;;9.08;8.13;;;;;;;4.25;90.94;98129.05;1719871;83;21068;-64
2021/01/24 04:34:51;;;;;;;12.58;8.40;;;;;;;4.25;90.82;98124.34;1719850;83;21100;-64
2021/01/24 04:37:19;;;;;;;10.95;8.93;;;;;;;4.22;90.85;98120.59;1719797;83;21143;-64
2021/01/24 04:39:47;;;;;;;13.13;11.03;;;;;;;4.18;90.98;98119.05;1719918;83;21563;-64
2021/01/24 04:42:14;;;;;;;13.38;9.70;;;;;;;4.17;91.18;98123.81;1719930;83;21492;-64
2021/01/24 04:44:42;;;;;;;9.93;7.80;;;;;;;4.17;91.31;98123.36;1719836;83;21085;-64
2021/01/24 04:47:10;;;;;;;9.30;8.28;;;;;;;4.20;91.41;98127.08;1719853;83;21106;-63
2021/01/24 04:49:38;;;;;;;12.30;8.68;;;;;;;4.23;91.32;98120.54;1719764;83;21131;-63
2021/01/24 04:52:05;;;;;;;13.53;9.33;;;;;;;4.23;91.37;98120.54;1719838;83;21104;-63
2021/01/24 04:54:33;;;;;;;10.60;8.50;;;;;;;4.23;91.59;98111.53;1719821;83;21080;-63
2021/01/24 04:57:01;;;;;;;8.70;7.33;;;;;;;4.26;91.59;98104.98;1719952;83;21501;-63
2021/01/24 04:59:28;;;;;;;11.93;8.73;;;;;;;4.31;91.67;98108.23;1719928;83;21207;-63
2021/01/24 05:01:57;;;;;;;12.95;9.08;;;;;;;4.35;91.67;98112.38;1719453;82;37526;-63
2021/01/24 05:04:25;;;;;;;16.70;10.48;;;;;;;4.40;91.66;98114.75;1719873;83;21191;-64
2021/01/24 05:06:53;;;;;;;10.63;9.50;;;;;;;4.41;91.67;98113.41;1689161;83;21060;-64
2021/01/24 05:09:21;;;;;;;9.45;8.05;;;;;;;4.45;91.54;98116.70;1714199;82;21064;-63
2021/01/24 05:11:51;;;;;;;14.45;9.40;;;;;;;4.47;91.49;98114.47;1714211;83;22336;-63
2021/01/24 05:14:24;;;;;;;11.70;9.98;;;;;;;4.48;91.44;98117.43;1714137;83;21124;-63
2021/01/24 05:16:53;;;;;;;11.73;10.53;;;;;;;4.50;91.50;98107.92;1713801;83;28607;-63
2021/01/24 05:19:21;;;;;;;12.98;11.60;;;;;;;4.54;91.50;98106.52;1714203;83;21068;-64
2021/01/24 05:21:50;;;;;;;13.48;10.82;;;;;;;4.55;91.52;98103.89;1714253;83;21107;-64
2021/01/24 05:24:20;;;;;;;13.25;11.45;;;;;;;4.57;91.28;98104.67;1714174;83;21372;-64
2021/01/24 05:26:50;;;;;;;20.90;12.53;;;;;;;4.57;91.39;98104.67;1714147;83;21119;-63
2021/01/24 05:29:24;;;;;;;16.70;11.68;;;;;;;4.58;91.34;98101.20;1714244;83;21135;-64
2021/01/24 05:31:54;;;;;;;13.13;10.98;;;;;;;4.58;91.13;98093.92;1714157;83;21084;-63
2021/01/24 05:34:24;;;;;;;17.23;13.53;;;;;;;4.55;91.08;98094.03;1714292;82;21754;-64
2021/01/24 05:36:51;;;;;;;13.50;12.10;;;;;;;4.53;91.33;98097.95;1714207;83;21362;-63
2021/01/24 05:39:20;;;;;;;13.93;12.40;;;;;;;4.53;91.46;98101.81;1714172;83;21123;-64
2021/01/24 05:41:54;;;;;;;18.23;12.10;;;;;;;4.52;91.54;98101.88;1714161;83;21131;-64
2021/01/24 05:44:23;;;;;;;16.10;12.60;;;;;;;4.52;91.75;98104.00;1714165;83;21072;-64
2021/01/24 05:46:53;;;;;;;14.30;11.73;;;;;;;4.56;91.61;98106.01;1714298;83;21465;-63
2021/01/24 05:49:30;;;;;;;13.93;12.23;;;;;;;4.59;91.61;98101.58;1686908;83;21454;-63
2021/01/24 05:52:05;;;;;;;15.15;13.03;;;;;;;4.62;91.37;98093.72;1714185;83;21134;-63
2021/01/24 05:54:42;;;;;;;20.20;13.70;;;;;;;4.61;91.50;98099.76;1714223;83;21545;-63
2021/01/24 05:57:15;;;;;;;16.05;12.45;;;;;;;4.65;91.52;98100.48;1714227;83;21071;-63
2021/01/24 05:59:55;;;;;;;14.53;12.53;;;;;;;4.66;91.33;98102.16;1714222;83;21072;-63
2021/01/24 06:02:25;;;;;;;17.67;13.80;;;;;;;4.69;91.35;98101.59;1714243;83;21283;-64
2021/01/24 06:04:53;;;;;;;15.25;13.25;;;;;;;4.68;91.17;98101.66;1714267;83;21107;-65
2021/01/24 06:07:21;;;;;;;20.12;15.25;;;;;;;4.65;91.36;98092.31;1709003;83;21052;-64
2021/01/24 06:09:51;;;;;;;16.00;13.32;;;;;;;4.63;91.31;98090.23;1706449;83;21048;-64
2021/01/24 06:12:23;;;;;;;19.30;13.32;;;;;;;4.64;91.44;98096.23;1706456;84;21152;-64
2021/01/24 06:14:52;;;;;;;20.27;14.57;;;;;;;4.65;91.30;98088.89;1706700;84;21305;-64
2021/01/24 06:17:30;;;;;;;16.87;14.03;;;;;;;4.64;91.37;98086.77;1706443;84;21621;-64
2021/01/24 06:20:01;;;;;;;18.52;14.73;;;;;;;4.64;91.44;98088.05;1704627;84;21139;-64
2021/01/24 06:22:43;;;;;;;17.42;13.58;;;;;;;4.62;91.64;98082.13;1706453;84;21160;-64
2021/01/24 06:25:17;;;;;;;22.27;16.73;;;;;;;4.63;91.69;98082.52;1706462;84;21076;-64
2021/01/24 06:27:55;;;;;;;19.98;16.40;;;;;;;4.63;91.71;98081.23;1706445;84;21378;-63
2021/01/24 06:30:25;;;;;;;22.73;17.92;;;;;;;4.63;91.91;98075.23;1706393;84;21068;-63
2021/01/24 06:32:52;;;;;;;20.88;17.15;;;;;;;4.62;92.13;98065.39;1706533;83;21073;-64
2021/01/24 06:35:23;;;;;;;23.62;16.23;;;;;;;4.67;92.20;98078.09;1706415;84;21493;-64
2021/01/24 06:38:00;;;;;;;26.05;19.32;;;;;;;4.71;92.20;98080.48;1706432;83;21074;-64
2021/01/24 06:40:31;;;;;;;26.93;17.73;;;;;;;4.75;92.19;98075.61;1706438;84;21372;-64
2021/01/24 06:43:02;;;;;;;33.15;23.73;;;;;;;4.79;92.10;98074.59;1706387;84;21124;-63
2021/01/24 06:45:35;;;;;;;33.58;24.55;;;;;;;4.83;92.29;98070.13;1706406;84;21089;-63
2021/01/24 06:48:03;;;;;;;44.10;27.30;;;;;;;4.87;92.31;98055.39;1706683;84;21494;-64
2021/01/24 06:50:44;;;;;;;38.92;23.30;;;;;;;4.90;92.26;98049.66;1706453;84;21068;-64
2021/01/24 06:53:26;;;;;;;32.28;21.25;;;;;;;4.94;91.94;98051.67;1706469;82;21348;-64
2021/01/24 06:56:05;;;;;;;29.72;21.73;;;;;;;4.94;92.04;98054.25;1706378;84;21088;-64
2021/01/24 06:58:34;;;;;;;31.05;21.23;;;;;;;4.99;92.14;98059.61;1706434;84;21052;-63
2021/01/24 07:01:36;;;;;;;31.82;21.42;;;;;;;5.02;92.01;98053.01;1706375;84;21085;-64
2021/01/24 07:04:30;;;;;;;24.85;17.20;;;;;;;5.05;92.05;98050.76;1706411;84;21076;-64
2021/01/24 07:07:13;;;;;;;33.85;22.58;;;;;;;5.12;92.13;98058.63;1711093;83;22403;-63
2021/01/24 07:09:43;;;;;;;37.20;23.73;;;;;;;5.16;92.07;98052.45;1720144;83;21099;-64
2021/01/24 07:12:11;;;;;;;30.60;19.50;;;;;;;5.23;92.02;98050.43;1719894;83;21059;-64
2021/01/24 07:14:45;;;;;;;29.52;19.17;;;;;;;5.27;91.87;98042.51;1719854;83;22058;-64
2021/01/24 07:17:16;;;;;;;32.80;20.80;;;;;;;5.32;91.63;98044.45;1719937;83;21056;-64
2021/01/24 07:19:50;;;;;;;33.80;21.90;;;;;;;5.36;91.45;98047.73;1719865;83;21374;-64
2021/01/24 07:22:20;;;;;;;30.77;20.12;;;;;;;5.41;91.58;98039.33;1719861;83;21130;-64
2021/01/24 07:24:49;;;;;;;41.15;22.90;;;;;;;5.43;91.37;98032.36;1719845;83;21151;-64
2021/01/24 07:27:28;;;;;;;27.93;17.67;;;;;;;5.47;91.29;98037.78;1719949;83;21127;-64
2021/01/24 07:29:56;;;;;;;31.42;19.65;;;;;;;5.49;91.20;98035.52;1719886;83;21163;-64
2021/01/24 07:32:25;;;;;;;35.40;20.55;;;;;;;5.54;91.04;98029.72;1719841;83;21202;-64
2021/01/24 07:34:54;;;;;;;39.75;24.23;;;;;;;5.60;91.17;98026.02;1719919;83;21521;-63
2021/01/24 07:37:22;;;;;;;35.83;20.95;;;;;;;5.68;91.03;98025.23;1719874;83;21504;-64
2021/01/24 07:39:52;;;;;;;29.37;18.87;;;;;;;5.73;90.90;98015.55;1719931;83;21146;-65
2021/01/24 07:42:19;;;;;;;32.28;19.17;;;;;;;5.79;90.74;98020.44;1719954;83;21127;-64
2021/01/24 07:44:47;;;;;;;31.87;19.45;;;;;;;5.84;90.48;98015.05;1719782;83;21204;-65
2021/01/24 07:47:15;;;;;;;27.55;16.00;;;;;;;5.88;90.43;98016.17;1719815;83;21076;-64
2021/01/24 07:49:43;;;;;;;31.87;19.52;;;;;;;5.92;90.31;98016.03;1719848;83;21059;-64
2021/01/24 07:52:11;;;;;;;32.15;18.92;;;;;;;5.93;90.16;98022.42;1719796;82;21081;-63
2021/01/24 07:54:40;;;;;;;29.40;16.50;;;;;;;5.95;89.98;98026.22;1719960;83;21491;-64
2021/01/24 07:57:09;;;;;;;25.45;15.88;;;;;;;5.98;89.86;98024.80;1693579;83;21210;-65
2021/01/24 07:59:37;;;;;;;23.38;14.93;;;;;;;5.99;89.92;98026.02;1693613;83;21116;-65
2021/01/24 08:02:05;;;;;;;26.35;17.05;;;;;;;6.01;89.94;98028.50;1719822;83;21063;-64
2021/01/24 08:04:36;;;;;;;24.67;13.85;;;;;;;6.06;90.14;98035.58;1719783;82;21080;-64
2021/01/24 08:07:08;;;;;;;22.73;14.23;;;;;;;6.13;90.03;98025.38;1719833;83;21198;-64
2021/01/24 08:09:36;;;;;;;23.55;13.70;;;;;;;6.21;89.71;98025.83;1719899;83;22273;-64
2021/01/24 08:12:15;;;;;;;31.12;14.75;;;;;;;6.28;89.55;98029.81;1719749;83;21092;-64
2021/01/24 08:14:40;;;;;;;22.48;14.18;;;;;;;6.33;89.41;98029.59;1719519;83;21112;-64
2021/01/24 08:17:12;;;;;;;22.67;15.48;;;;;;;6.38;89.30;98029.77;1693455;83;21147;-65
2021/01/24 08:19:39;;;;;;;23.75;14.28;;;;;;;6.46;89.12;98022.48;1694096;83;21109;-65
2021/01/24 08:22:07;;;;;;;30.72;19.50;;;;;;;6.54;88.82;98018.25;1719782;83;21390;-63
2021/01/24 08:24:34;;;;;;;30.10;18.67;;;;;;;6.60;88.65;98014.51;1719715;83;21174;-65
2021/01/24 08:27:04;;;;;;;23.57;14.50;;;;;;;6.68;88.55;98026.16;1719802;83;21075;-64
2021/01/24 08:29:35;;;;;;;21.90;14.38;;;;;;;6.77;88.29;98023.59;1693445;83;21141;-64
2021/01/24 08:32:05;;;;;;;19.65;13.65;;;;;;;6.84;87.67;98021.06;1694323;83;21473;-65
2021/01/24 08:34:33;;;;;;;26.75;16.45;;;;;;;6.87;87.30;98020.47;1719795;83;21384;-64
2021/01/24 08:37:07;;;;;;;21.57;16.23;;;;;;;6.87;87.19;98017.88;1719837;83;21564;-64
2021/01/24 08:39:34;;;;;;;20.62;13.72;;;;;;;6.91;87.00;98023.74;1719938;83;21076;-64
2021/01/24 08:42:06;;;;;;;18.60;13.83;;;;;;;6.86;86.71;98017.50;1670804;83;21828;-64
2021/01/24 08:44:34;;;;;;;23.90;14.28;;;;;;;6.87;86.70;98008.84;1719907;83;21075;-64
2021/01/24 08:47:06;;;;;;;24.77;14.15;;;;;;;6.91;86.71;98013.40;1719795;83;21390;-65
2021/01/24 08:49:34;;;;;;;24.12;16.10;;;;;;;6.95;86.60;98010.22;1719911;83;21071;-65
2021/01/24 08:52:03;;;;;;;22.48;15.93;;;;;;;7.01;86.47;98014.59;1719845;83;21496;-66
2021/01/24 08:54:35;;;;;;;22.65;13.78;;;;;;;7.07;86.49;98004.41;1719775;82;21076;-63
2021/01/24 08:57:20;;;;;;;19.60;10.63;;;;;;;7.18;86.26;98012.48;1719851;83;21064;-64
2021/01/24 08:59:57;;;;;;;18.92;12.05;;;;;;;7.24;86.01;98009.10;1719788;83;21375;-64
2021/01/24 09:02:36;;;;;;;21.33;13.88;;;;;;;7.33;85.77;98010.85;1719785;83;21198;-64
2021/01/24 09:05:07;;;;;;;20.88;12.78;;;;;;;7.38;85.57;98009.70;1719798;83;21064;-64
2021/01/24 09:07:43;;;;;;;16.05;11.28;;;;;;;7.43;85.49;98005.56;1719689;83;21204;-65
2021/01/24 09:10:31;;;;;;;11.70;9.80;;;;;;;7.46;85.36;98007.55;1719793;83;21072;-65
2021/01/24 09:13:03;;;;;;;12.75;8.00;;;;;;;7.51;85.27;98002.97;1719392;83;21452;-64
2021/01/24 09:15:33;;;;;;;16.23;10.82;;;;;;;7.59;85.05;97998.70;1719862;83;21095;-65
2021/01/24 09:18:01;;;;;;;18.15;11.22;;;;;;;7.64;84.74;97992.80;1719833;83;21084;-64
2021/01/24 09:20:29;;;;;;;18.07;11.22;;;;;;;7.67;84.67;97991.80;1719746;83;21143;-66
2021/01/24 09:22:58;;;;;;;12.63;9.25;;;;;;;7.70;84.74;97983.42;1719810;83;21117;-65
2021/01/24 09:25:26;;;;;;;18.57;10.18;;;;;;;7.75;84.45;97988.36;1719755;83;21380;-64
2021/01/24 09:27:54;;;;;;;21.12;13.50;;;;;;;7.79;84.26;97986.83;1719720;83;21096;-64
2021/01/24 09:30:23;;;;;;;16.35;11.55;;;;;;;7.87;84.18;97991.12;1719775;83;21059;-65
2021/01/24 09:32:50;;;;;;;23.52;17.35;;;;;;;7.95;83.77;97989.42;1719769;83;21095;-65
2021/01/24 09:35:18;;;;;;;19.75;12.10;;;;;;;7.99;83.64;97990.92;1719783;83;21247;-65
2021/01/24 09:37:48;;;;;;;14.60;9.25;;;;;;;8.05;83.48;97988.44;1719900;83;21215;-64
2021/01/24 09:40:16;;;;;;;23.80;12.20;;;;;;;8.08;83.13;97988.28;1719885;83;21182;-65
2021/01/24 09:42:43;;;;;;;16.12;9.80;;;;;;;8.06;83.30;97988.36;1719920;83;21071;-64
2021/01/24 09:45:13;;;;;;;15.83;11.10;;;;;;;8.12;83.26;97988.03;1719899;83;21068;-64
2021/01/24 09:47:40;;;;;;;13.38;9.43;;;;;;;8.18;83.16;97986.41;1719921;83;21084;-65
2021/01/24 09:50:10;;;;;;;11.55;9.08;;;;;;;8.24;82.79;97986.05;1719990;83;21379;-64
2021/01/24 09:52:38;;;;;;;14.78;8.80;;;;;;;8.29;82.51;97985.34;1719856;82;21151;-64
2021/01/24 09:55:07;;;;;;;11.73;8.18;;;;;;;8.27;82.14;97982.45;1719905;83;21186;-64
2021/01/24 09:57:37;;;;;;;15.83;10.38;;;;;;;8.22;82.15;97993.06;1719918;83;21190;-65
2021/01/24 10:00:07;;;;;;;12.35;9.65;;;;;;;8.19;82.32;97988.05;1719904;83;21137;-66
2021/01/24 10:02:41;;;;;;;15.50;10.40;;;;;;;8.15;82.14;97990.46;1719966;83;21426;-64
2021/01/24 10:05:11;;;;;;;12.58;8.33;;;;;;;8.10;82.46;97973.50;1719918;83;21163;-64
2021/01/24 10:07:38;;;;;;;16.73;10.78;;;;;;;8.10;82.49;97978.22;1716826;83;21494;-66
2021/01/24 10:10:08;;;;;;;22.98;10.82;;;;;;;8.13;82.57;97970.74;1706418;84;21191;-65
2021/01/24 10:12:36;;;;;;;14.33;9.13;;;;;;;8.17;82.53;97965.31;1706421;84;21261;-64
2021/01/24 10:15:05;;;;;;;14.28;8.03;;;;;;;8.23;82.49;97962.36;1706415;84;21205;-64
2021/01/24 10:17:33;;;;;;;13.03;7.95;;;;;;;8.33;82.31;97959.30;1706376;84;21087;-64
2021/01/24 10:20:02;;;;;;;14.30;8.63;;;;;;;8.42;82.06;97955.71;1706405;84;21101;-64
2021/01/24 10:22:29;;;;;;;16.62;9.15;;;;;;;8.46;81.81;97952.03;1706444;84;21155;-64
2021/01/24 10:24:58;;;;;;;14.95;10.48;;;;;;;8.46;81.58;97946.84;1706362;83;21135;-64
2021/01/24 10:27:26;;;;;;;19.50;10.35;;;;;;;8.45;81.58;97948.23;1706447;82;21620;-65
2021/01/24 10:29:53;;;;;;;12.95;9.05;;;;;;;8.46;81.59;97947.31;1706356;84;21076;-65
2021/01/24 10:32:21;;;;;;;23.87;12.07;;;;;;;8.50;81.27;97939.74;1706402;84;21072;-64
2021/01/24 10:34:53;;;;;;;15.30;9.08;;;;;;;8.51;81.26;97934.47;1705097;84;21072;-64
2021/01/24 10:37:20;;;;;;;12.50;8.73;;;;;;;8.54;81.15;97937.36;1706444;84;21073;-65
2021/01/24 10:39:48;;;;;;;14.40;8.50;;;;;;;8.57;81.06;97935.43;1706361;84;21204;-65
2021/01/24 10:42:17;;;;;;;11.48;8.00;;;;;;;8.54;80.85;97933.47;1706376;84;21164;-64
2021/01/24 10:44:44;;;;;;;15.88;9.20;;;;;;;8.49;80.80;97940.20;1706374;83;21097;-64
2021/01/24 10:47:12;;;;;;;15.25;11.70;;;;;;;8.46;80.93;97931.30;1706388;84;21069;-64
2021/01/24 10:49:41;;;;;;;18.37;11.83;;;;;;;8.47;80.92;97934.73;1706425;83;21065;-65
2021/01/24 10:52:10;;;;;;;14.75;10.55;;;;;;;8.43;80.80;97928.05;1706380;84;21274;-66
2021/01/24 10:54:37;;;;;;;13.55;9.88;;;;;;;8.38;80.93;97919.27;1706401;83;21099;-65
2021/01/24 10:57:06;;;;;;;13.38;9.43;;;;;;;8.33;81.06;97918.69;1706398;84;21187;-64
2021/01/24 10:59:33;;;;;;;16.93;11.45;;;;;;;8.25;81.26;97915.20;1706478;83;21488;-65
2021/01/24 11:02:01;;;;;;;13.38;9.83;;;;;;;8.21;81.45;97910.27;1706396;84;21097;-64
2021/01/24 11:04:33;;;;;;;18.85;10.90;;;;;;;8.21;81.56;97911.56;1706328;84;22135;-65
2021/01/24 11:07:01;;;;;;;12.35;9.10;;;;;;;8.19;81.54;97914.23;1706369;84;21076;-64
2021/01/24 11:09:29;;;;;;;14.68;7.83;;;;;;;8.19;81.66;97910.84;1706243;83;21172;-64
2021/01/24 11:11:59;;;;;;;15.23;9.03;;;;;;;8.19;81.67;97914.73;1706368;83;21120;-65
2021/01/24 11:14:27;;;;;;;13.55;9.25;;;;;;;8.19;81.89;97919.42;1706389;83;21188;-65
2021/01/24 11:16:55;;;;;;;14.43;9.43;;;;;;;8.21;81.79;97921.46;1706444;83;22249;-64
2021/01/24 11:19:22;;;;;;;16.52;9.13;;;;;;;8.20;81.79;97917.20;1706297;84;21095;-65
2021/01/24 11:21:50;;;;;;;14.58;7.90;;;;;;;8.17;81.74;97919.16;1706369;84;21565;-64
2021/01/24 11:24:17;;;;;;;13.68;9.33;;;;;;;8.15;81.91;97913.23;1706435;84;21152;-64
2021/01/24 11:26:45;;;;;;;17.67;11.38;;;;;;;8.12;82.09;97924.59;1706366;84;21120;-66
2021/01/24 11:29:13;;;;;;;18.23;10.53;;;;;;;8.11;82.28;97919.49;1706358;84;23526;-64
2021/01/24 11:31:40;;;;;;;15.53;9.35;;;;;;;8.10;82.38;97921.25;1706260;84;21575;-64
2021/01/24 11:34:08;;;;;;;13.18;8.88;;;;;;;8.13;82.32;97918.49;1706347;83;21124;-65
2021/01/24 11:36:36;;;;;;;16.02;8.25;;;;;;;8.14;82.27;97927.09;1706368;83;21178;-65
2021/01/24 11:39:05;;;;;;;15.03;9.70;;;;;;;8.15;82.31;97916.66;1706375;84;21080;-64
2021/01/24 11:41:32;;;;;;;16.75;9.13;;;;;;;8.15;82.15;97915.36;1706377;84;21363;-64
2021/01/24 11:44:00;;;;;;;12.18;8.90;;;;;;;8.12;82.38;97914.23;1706299;84;21124;-64
2021/01/24 11:46:27;;;;;;;13.05;7.97;;;;;;;8.07;82.45;97911.06;1706267;84;21131;-64